sensor_id;sensor_type;location;lat;lon;timestamp;temperature;humidity
1075;DHT22;526;51.392;12.448;2023-11-21T05:02:10;7.40;97.30
1075;DHT22;526;51.392;12.448;2023-11-21T05:04:35;7.50;97.30
1075;DHT22;526;51.392;12.448;2023-11-21T05:07:01;7.50;97.30
1075;DHT22;526;51.392;12.448;2023-11-21T05:09:26;7.50;97.30
1075;DHT22;526;51.392;12.448;2023-11-21T05:11:54;7.50;97.30
1075;DHT22;526;51.392;12.448;2023-11-21T05:14:19;7.50;97.30
1075;DHT22;526;51.392;12.448;2023-11-21T05:16:45;7.50;97.30
1075;DHT22;526;51.392;12.448;2023-11-21T05:19:11;7.50;97.30
1075;DHT22;526;51.392;12.448;2023-11-21T05:21:38;7.50;97.30
1075;DHT22;526;51.392;12.448;2023-11-21T05:24:04;7.50;97.30
1075;DHT22;526;51.392;12.448;2023-11-21T05:26:30;7.50;97.30
1075;DHT22;526;51.392;12.448;2023-11-21T05:28:56;7.50;97.30
1075;DHT22;526;51.392;12.448;2023-11-21T05:31:21;7.50;97.30
1075;DHT22;526;51.392;12.448;2023-11-21T05:33:47;7.50;97.30
1075;DHT22;526;51.392;12.448;2023-11-21T05:36:13;7.50;97.30
1075;DHT22;526;51.392;12.448;2023-11-21T05:38:38;7.50;97.30
1075;DHT22;526;51.392;12.448;2023-11-21T05:41:04;7.50;97.30
1075;DHT22;526;51.392;12.448;2023-11-21T05:43:30;7.50;97.30
1075;DHT22;526;51.392;12.448;2023-11-21T05:45:57;7.50;97.30
1075;DHT22;526;51.392;12.448;2023-11-21T05:48:23;7.50;97.30
1075;DHT22;526;51.392;12.448;2023-11-21T05:50:49;7.50;97.30
1075;DHT22;526;51.392;12.448;2023-11-21T05:53:15;7.50;97.30
1075;DHT22;526;51.392;12.448;2023-11-21T05:55:41;7.40;97.30
1075;DHT22;526;51.392;12.448;2023-11-21T05:58:07;7.40;97.30
1075;DHT22;526;51.392;12.448;2023-11-21T06:00:33;7.40;97.30
1075;DHT22;526;51.392;12.448;2023-11-21T06:02:58;7.40;97.30
1075;DHT22;526;51.392;12.448;2023-11-21T06:05:25;7.40;97.30
1075;DHT22;526;51.392;12.448;2023-11-21T06:07:52;7.40;97.30
1075;DHT22;526;51.392;12.448;2023-11-21T06:10:19;7.50;97.30
1075;DHT22;526;51.392;12.448;2023-11-21T06:12:45;7.50;97.30
1075;DHT22;526;51.392;12.448;2023-11-21T06:15:11;7.50;97.30
1075;DHT22;526;51.392;12.448;2023-11-21T06:17:40;7.50;97.30
1075;DHT22;526;51.392;12.448;2023-11-21T06:20:08;7.50;97.30
1075;DHT22;526;51.392;12.448;2023-11-21T06:22:38;7.50;97.30
1075;DHT22;526;51.392;12.448;2023-11-21T06:25:05;7.50;97.30
1075;DHT22;526;51.392;12.448;2023-11-21T06:27:37;7.50;97.30
1075;DHT22;526;51.392;12.448;2023-11-21T06:30:03;7.50;97.30
1075;DHT22;526;51.392;12.448;2023-11-21T06:32:29;7.40;97.30
1075;DHT22;526;51.392;12.448;2023-11-21T06:34:55;7.40;97.30
1075;DHT22;526;51.392;12.448;2023-11-21T06:37:21;7.40;97.30
1075;DHT22;526;51.392;12.448;2023-11-21T06:39:49;7.40;97.30
1075;DHT22;526;51.392;12.448;2023-11-21T06:42:17;7.40;97.30
1075;DHT22;526;51.392;12.448;2023-11-21T06:44:45;7.50;97.30
1075;DHT22;526;51.392;12.448;2023-11-21T06:47:10;7.50;97.30
1075;DHT22;526;51.392;12.448;2023-11-21T06:49:36;7.50;97.30
1075;DHT22;526;51.392;12.448;2023-11-21T06:52:01;7.50;97.30
1075;DHT22;526;51.392;12.448;2023-11-21T06:54:28;7.50;97.30
1075;DHT22;526;51.392;12.448;2023-11-21T06:56:54;7.50;97.30
1075;DHT22;526;51.392;12.448;2023-11-21T06:59:22;7.50;97.30
1075;DHT22;526;51.392;12.448;2023-11-21T07:01:47;7.60;97.30
1075;DHT22;526;51.392;12.448;2023-11-21T07:04:13;7.60;97.30
1075;DHT22;526;51.392;12.448;2023-11-21T07:06:38;7.60;97.30
1075;DHT22;526;51.392;12.448;2023-11-21T07:09:04;7.60;97.30
1075;DHT22;526;51.392;12.448;2023-11-21T07:11:29;7.60;97.30
1075;DHT22;526;51.392;12.448;2023-11-21T07:13:55;7.60;97.30
1075;DHT22;526;51.392;12.448;2023-11-21T07:16:20;7.60;97.30
1075;DHT22;526;51.392;12.448;2023-11-21T07:18:47;7.60;97.30
1075;DHT22;526;51.392;12.448;2023-11-21T07:21:14;7.60;97.30
1075;DHT22;526;51.392;12.448;2023-11-21T07:23:41;7.60;97.30
1075;DHT22;526;51.392;12.448;2023-11-21T07:26:07;7.60;97.30
1075;DHT22;526;51.392;12.448;2023-11-21T07:28:35;7.60;97.30
1075;DHT22;526;51.392;12.448;2023-11-21T07:31:01;7.70;97.30
1075;DHT22;526;51.392;12.448;2023-11-21T07:33:27;7.70;97.30
1075;DHT22;526;51.392;12.448;2023-11-21T07:35:52;7.70;97.30
1075;DHT22;526;51.392;12.448;2023-11-21T07:38:18;7.70;97.30
1075;DHT22;526;51.392;12.448;2023-11-21T07:40:43;7.70;97.30
1075;DHT22;526;51.392;12.448;2023-11-21T07:43:09;7.70;97.30
1075;DHT22;526;51.392;12.448;2023-11-21T07:45:36;7.70;97.30
1075;DHT22;526;51.392;12.448;2023-11-21T07:48:01;7.70;97.30
1075;DHT22;526;51.392;12.448;2023-11-21T07:50:28;7.70;97.30
1075;DHT22;526;51.392;12.448;2023-11-21T07:52:54;7.70;97.30
1075;DHT22;526;51.392;12.448;2023-11-21T07:55:20;7.70;97.30
1075;DHT22;526;51.392;12.448;2023-11-21T07:57:46;7.70;97.30
1075;DHT22;526;51.392;12.448;2023-11-21T08:00:12;7.60;97.30
1075;DHT22;526;51.392;12.448;2023-11-21T08:02:39;7.50;97.30
1075;DHT22;526;51.392;12.448;2023-11-21T08:05:05;7.50;97.30
1075;DHT22;526;51.392;12.448;2023-11-21T08:07:33;7.50;97.30
1075;DHT22;526;51.392;12.448;2023-11-21T08:09:58;7.50;97.30
1075;DHT22;526;51.392;12.448;2023-11-21T08:12:24;7.40;97.30
1075;DHT22;526;51.392;12.448;2023-11-21T08:14:49;7.40;97.30
1075;DHT22;526;51.392;12.448;2023-11-21T08:17:15;7.30;97.30
1075;DHT22;526;51.392;12.448;2023-11-21T08:19:41;7.30;97.30
1075;DHT22;526;51.392;12.448;2023-11-21T08:22:06;7.30;97.30
1075;DHT22;526;51.392;12.448;2023-11-21T08:24:33;7.30;97.30
1075;DHT22;526;51.392;12.448;2023-11-21T08:26:59;7.30;97.30
1075;DHT22;526;51.392;12.448;2023-11-21T08:29:24;7.30;97.30
1075;DHT22;526;51.392;12.448;2023-11-21T08:31:50;7.30;97.30
1075;DHT22;526;51.392;12.448;2023-11-21T08:34:15;7.40;97.30
1075;DHT22;526;51.392;12.448;2023-11-21T08:36:42;7.40;97.30
1075;DHT22;526;51.392;12.448;2023-11-21T08:39:08;7.30;97.30
1075;DHT22;526;51.392;12.448;2023-11-21T08:41:35;7.30;97.30
1075;DHT22;526;51.392;12.448;2023-11-21T08:44:02;7.20;97.30
1075;DHT22;526;51.392;12.448;2023-11-21T08:46:32;7.20;97.30
1075;DHT22;526;51.392;12.448;2023-11-21T08:49:00;7.30;97.30
1075;DHT22;526;51.392;12.448;2023-11-21T08:51:26;7.30;97.30
1075;DHT22;526;51.392;12.448;2023-11-21T08:53:51;7.20;97.30
1075;DHT22;526;51.392;12.448;2023-11-21T08:56:18;7.20;97.30
1075;DHT22;526;51.392;12.448;2023-11-21T08:58:45;7.20;97.30
1075;DHT22;526;51.392;12.448;2023-11-21T09:01:12;7.20;97.30
1075;DHT22;526;51.392;12.448;2023-11-21T09:03:38;7.20;97.30
1075;DHT22;526;51.392;12.448;2023-11-21T09:06:03;7.20;97.30
1075;DHT22;526;51.392;12.448;2023-11-21T09:08:29;7.20;97.30
1075;DHT22;526;51.392;12.448;2023-11-21T09:10:55;7.30;97.30
1075;DHT22;526;51.392;12.448;2023-11-21T09:13:20;7.30;97.30
1075;DHT22;526;51.392;12.448;2023-11-21T09:15:46;7.20;97.30
1075;DHT22;526;51.392;12.448;2023-11-21T09:18:13;7.20;97.30
1075;DHT22;526;51.392;12.448;2023-11-21T09:20:39;7.20;97.30
1075;DHT22;526;51.392;12.448;2023-11-21T09:23:04;7.20;97.30
1075;DHT22;526;51.392;12.448;2023-11-21T09:25:30;7.20;97.30
1075;DHT22;526;51.392;12.448;2023-11-21T09:27:55;7.20;97.30
1075;DHT22;526;51.392;12.448;2023-11-21T09:30:23;7.20;97.30
1075;DHT22;526;51.392;12.448;2023-11-21T09:32:50;7.20;97.30
1075;DHT22;526;51.392;12.448;2023-11-21T09:35:16;7.10;97.30
1075;DHT22;526;51.392;12.448;2023-11-21T09:37:43;7.10;97.30
1075;DHT22;526;51.392;12.448;2023-11-21T09:40:11;7.00;97.30
1075;DHT22;526;51.392;12.448;2023-11-21T09:42:54;7.00;97.30
1075;DHT22;526;51.392;12.448;2023-11-21T09:45:27;7.00;97.30
1075;DHT22;526;51.392;12.448;2023-11-21T09:47:54;7.10;97.30
1075;DHT22;526;51.392;12.448;2023-11-21T09:50:21;7.10;97.30
1075;DHT22;526;51.392;12.448;2023-11-21T09:55:28;7.00;97.30
1075;DHT22;526;51.392;12.448;2023-11-21T09:58:02;7.00;97.30
1075;DHT22;526;51.392;12.448;2023-11-21T10:00:29;7.00;97.30
1075;DHT22;526;51.392;12.448;2023-11-21T10:02:58;7.00;97.30
1075;DHT22;526;51.392;12.448;2023-11-21T10:05:24;7.10;97.30
1075;DHT22;526;51.392;12.448;2023-11-21T10:07:50;7.00;97.30
1075;DHT22;526;51.392;12.448;2023-11-21T10:10:18;7.00;97.30
1075;DHT22;526;51.392;12.448;2023-11-21T10:12:50;6.90;97.30
1075;DHT22;526;51.392;12.448;2023-11-21T10:15:21;6.90;97.30
1075;DHT22;526;51.392;12.448;2023-11-21T10:17:49;6.90;97.30
1075;DHT22;526;51.392;12.448;2023-11-21T10:20:16;6.90;97.30
1075;DHT22;526;51.392;12.448;2023-11-21T10:22:42;6.80;97.30
1075;DHT22;526;51.392;12.448;2023-11-21T10:25:09;6.90;97.30
1075;DHT22;526;51.392;12.448;2023-11-21T10:27:36;6.90;97.30
1075;DHT22;526;51.392;12.448;2023-11-21T10:30:05;6.90;97.30
1075;DHT22;526;51.392;12.448;2023-11-21T10:32:31;6.80;97.30
1075;DHT22;526;51.392;12.448;2023-11-21T10:34:59;6.80;97.30
1075;DHT22;526;51.392;12.448;2023-11-21T10:37:32;6.80;97.30
1075;DHT22;526;51.392;12.448;2023-11-21T10:40:01;6.90;97.30
1075;DHT22;526;51.392;12.448;2023-11-21T10:42:26;6.90;97.30
1075;DHT22;526;51.392;12.448;2023-11-21T10:44:53;6.90;97.30
1075;DHT22;526;51.392;12.448;2023-11-21T10:47:19;6.80;97.30
1075;DHT22;526;51.392;12.448;2023-11-21T10:49:48;6.90;97.30
1075;DHT22;526;51.392;12.448;2023-11-21T10:52:14;6.90;97.30
1075;DHT22;526;51.392;12.448;2023-11-21T10:54:43;6.90;97.30
1075;DHT22;526;51.392;12.448;2023-11-21T10:57:10;6.80;97.30
1075;DHT22;526;51.392;12.448;2023-11-21T10:59:36;6.80;97.30
1075;DHT22;526;51.392;12.448;2023-11-21T11:02:17;6.80;97.30
1075;DHT22;526;51.392;12.448;2023-11-21T11:04:48;6.70;97.30
1075;DHT22;526;51.392;12.448;2023-11-21T11:07:14;6.70;97.30
1075;DHT22;526;51.392;12.448;2023-11-21T11:09:41;6.70;97.30
1075;DHT22;526;51.392;12.448;2023-11-21T11:12:08;6.70;97.30
1075;DHT22;526;51.392;12.448;2023-11-21T11:14:35;6.60;97.30
1075;DHT22;526;51.392;12.448;2023-11-21T11:17:02;6.60;97.30
1075;DHT22;526;51.392;12.448;2023-11-21T11:19:29;6.60;97.30
1075;DHT22;526;51.392;12.448;2023-11-21T11:22:10;6.60;97.30
1075;DHT22;526;51.392;12.448;2023-11-21T11:28:01;6.50;97.30
1075;DHT22;526;51.392;12.448;2023-11-21T11:33:36;6.50;97.30
1075;DHT22;526;51.392;12.448;2023-11-21T11:36:31;6.50;97.30
1075;DHT22;526;51.392;12.448;2023-11-21T11:38:59;6.50;97.30
1075;DHT22;526;51.392;12.448;2023-11-21T11:41:29;6.50;97.30
1075;DHT22;526;51.392;12.448;2023-11-21T11:43:58;6.40;97.30
1075;DHT22;526;51.392;12.448;2023-11-21T11:46:44;6.40;97.30
1075;DHT22;526;51.392;12.448;2023-11-21T11:49:27;6.30;97.30
1075;DHT22;526;51.392;12.448;2023-11-21T11:54:56;6.30;97.30
1075;DHT22;526;51.392;12.448;2023-11-21T11:57:25;6.20;97.30
1075;DHT22;526;51.392;12.448;2023-11-21T12:00:13;6.20;97.30
1075;DHT22;526;51.392;12.448;2023-11-21T12:02:45;6.20;97.30
1075;DHT22;526;51.392;12.448;2023-11-21T12:05:11;6.20;97.30
1075;DHT22;526;51.392;12.448;2023-11-21T12:07:59;6.20;97.30
1075;DHT22;526;51.392;12.448;2023-11-21T12:10:28;6.10;97.30
1075;DHT22;526;51.392;12.448;2023-11-21T12:13:06;6.00;97.30
1075;DHT22;526;51.392;12.448;2023-11-21T12:15:35;5.90;97.30
1075;DHT22;526;51.392;12.448;2023-11-21T12:18:02;5.80;97.30
1075;DHT22;526;51.392;12.448;2023-11-21T12:20:29;5.80;97.30
1075;DHT22;526;51.392;12.448;2023-11-21T12:23:00;5.80;97.30
1075;DHT22;526;51.392;12.448;2023-11-21T12:25:27;5.70;97.30
1075;DHT22;526;51.392;12.448;2023-11-21T12:27:55;5.60;97.30
1075;DHT22;526;51.392;12.448;2023-11-21T12:30:22;5.60;97.30
1075;DHT22;526;51.392;12.448;2023-11-21T12:32:52;5.50;97.30
1075;DHT22;526;51.392;12.448;2023-11-21T12:35:20;5.40;97.30
1075;DHT22;526;51.392;12.448;2023-11-21T12:37:47;5.40;97.30
1075;DHT22;526;51.392;12.448;2023-11-21T12:40:13;5.30;97.30
1075;DHT22;526;51.392;12.448;2023-11-21T12:42:44;5.30;97.30
1075;DHT22;526;51.392;12.448;2023-11-21T12:47:50;5.20;97.30
1075;DHT22;526;51.392;12.448;2023-11-21T12:50:18;5.10;97.30
1075;DHT22;526;51.392;12.448;2023-11-21T12:52:47;5.20;97.30
1075;DHT22;526;51.392;12.448;2023-11-21T12:55:17;5.20;97.30
1075;DHT22;526;51.392;12.448;2023-11-21T12:57:48;5.20;97.30
1075;DHT22;526;51.392;12.448;2023-11-21T13:00:18;5.20;97.30
1075;DHT22;526;51.392;12.448;2023-11-21T13:02:55;5.20;97.30
1075;DHT22;526;51.392;12.448;2023-11-21T13:05:31;5.20;97.30
1075;DHT22;526;51.392;12.448;2023-11-21T13:07:59;5.30;97.30
1075;DHT22;526;51.392;12.448;2023-11-21T13:10:26;5.30;97.30
1075;DHT22;526;51.392;12.448;2023-11-21T13:12:56;5.30;97.30
1075;DHT22;526;51.392;12.448;2023-11-21T13:15:24;5.30;97.30
1075;DHT22;526;51.392;12.448;2023-11-21T13:17:50;5.30;97.30
1075;DHT22;526;51.392;12.448;2023-11-21T13:20:16;5.30;97.30
1075;DHT22;526;51.392;12.448;2023-11-21T13:22:54;5.30;97.30
1075;DHT22;526;51.392;12.448;2023-11-21T13:25:26;5.30;97.30
1075;DHT22;526;51.392;12.448;2023-11-21T13:27:57;5.40;97.30
1075;DHT22;526;51.392;12.448;2023-11-21T13:30:23;5.40;97.30
1075;DHT22;526;51.392;12.448;2023-11-21T13:32:56;5.40;97.30
1075;DHT22;526;51.392;12.448;2023-11-21T13:35:30;5.40;97.30
1075;DHT22;526;51.392;12.448;2023-11-21T13:38:08;5.40;97.30
1075;DHT22;526;51.392;12.448;2023-11-21T13:40:35;5.40;97.30
1075;DHT22;526;51.392;12.448;2023-11-21T13:43:05;5.40;97.30
1075;DHT22;526;51.392;12.448;2023-11-21T13:45:35;5.40;97.30
1075;DHT22;526;51.392;12.448;2023-11-21T13:48:01;5.40;97.30
1075;DHT22;526;51.392;12.448;2023-11-21T13:50:27;5.30;97.30
1075;DHT22;526;51.392;12.448;2023-11-21T13:53:01;5.30;97.30
1075;DHT22;526;51.392;12.448;2023-11-21T13:55:34;5.30;97.30
1075;DHT22;526;51.392;12.448;2023-11-21T13:58:01;5.30;97.30
1075;DHT22;526;51.392;12.448;2023-11-21T14:00:27;5.30;97.30
1075;DHT22;526;51.392;12.448;2023-11-21T14:03:12;5.30;97.30
1075;DHT22;526;51.392;12.448;2023-11-21T14:05:47;5.30;97.30
1075;DHT22;526;51.392;12.448;2023-11-21T14:08:18;5.30;97.30
1075;DHT22;526;51.392;12.448;2023-11-21T14:10:45;5.40;97.30
1075;DHT22;526;51.392;12.448;2023-11-21T14:13:18;5.40;97.30
1075;DHT22;526;51.392;12.448;2023-11-21T14:15:45;5.40;97.30
1075;DHT22;526;51.392;12.448;2023-11-21T14:18:12;5.40;97.30
1075;DHT22;526;51.392;12.448;2023-11-21T14:20:42;5.40;97.30
1075;DHT22;526;51.392;12.448;2023-11-21T14:23:08;5.40;97.30
1075;DHT22;526;51.392;12.448;2023-11-21T14:25:34;5.40;97.30
1075;DHT22;526;51.392;12.448;2023-11-21T14:28:00;5.30;97.30
1075;DHT22;526;51.392;12.448;2023-11-21T14:30:26;5.30;97.30
1075;DHT22;526;51.392;12.448;2023-11-21T14:32:52;5.20;97.30
1075;DHT22;526;51.392;12.448;2023-11-21T14:35:18;5.20;97.30
1075;DHT22;526;51.392;12.448;2023-11-21T14:37:44;5.20;97.30
1075;DHT22;526;51.392;12.448;2023-11-21T14:40:12;5.10;97.30
1075;DHT22;526;51.392;12.448;2023-11-21T14:42:43;5.10;97.30
1075;DHT22;526;51.392;12.448;2023-11-21T14:45:12;5.10;97.30
1075;DHT22;526;51.392;12.448;2023-11-21T14:47:38;5.10;97.30
1075;DHT22;526;51.392;12.448;2023-11-21T14:50:09;5.10;97.30
1075;DHT22;526;51.392;12.448;2023-11-21T14:52:57;5.10;97.30
1075;DHT22;526;51.392;12.448;2023-11-21T14:55:25;5.10;97.30
1075;DHT22;526;51.392;12.448;2023-11-21T14:58:13;5.10;97.30
1075;DHT22;526;51.392;12.448;2023-11-21T15:00:42;5.10;97.30
1075;DHT22;526;51.392;12.448;2023-11-21T15:03:11;5.10;97.30
1075;DHT22;526;51.392;12.448;2023-11-21T15:06:04;5.10;97.30
1075;DHT22;526;51.392;12.448;2023-11-21T15:08:54;5.10;97.30
1075;DHT22;526;51.392;12.448;2023-11-21T15:11:31;5.10;97.30
1075;DHT22;526;51.392;12.448;2023-11-21T15:13:57;5.10;97.30
1075;DHT22;526;51.392;12.448;2023-11-21T15:16:23;5.10;97.30
1075;DHT22;526;51.392;12.448;2023-11-21T15:18:51;5.10;97.30
1075;DHT22;526;51.392;12.448;2023-11-21T15:21:18;5.10;97.30
1075;DHT22;526;51.392;12.448;2023-11-21T15:23:44;5.10;97.30
1075;DHT22;526;51.392;12.448;2023-11-21T15:26:10;5.00;97.30
1075;DHT22;526;51.392;12.448;2023-11-21T15:28:35;5.00;97.30
1075;DHT22;526;51.392;12.448;2023-11-21T15:31:01;5.00;97.30
1075;DHT22;526;51.392;12.448;2023-11-21T15:33:28;4.90;97.30
1075;DHT22;526;51.392;12.448;2023-11-21T15:35:53;4.90;97.30
1075;DHT22;526;51.392;12.448;2023-11-21T15:38:20;4.90;97.30
1075;DHT22;526;51.392;12.448;2023-11-21T15:40:46;4.90;97.30
1075;DHT22;526;51.392;12.448;2023-11-21T15:43:12;4.80;97.30
1075;DHT22;526;51.392;12.448;2023-11-21T15:45:39;4.80;97.30
1075;DHT22;526;51.392;12.448;2023-11-21T15:48:05;4.80;97.30
1075;DHT22;526;51.392;12.448;2023-11-21T15:50:31;4.80;97.30
1075;DHT22;526;51.392;12.448;2023-11-21T15:53:00;4.80;97.30
1075;DHT22;526;51.392;12.448;2023-11-21T15:55:26;4.80;97.30
1075;DHT22;526;51.392;12.448;2023-11-21T15:57:52;4.80;97.30
1075;DHT22;526;51.392;12.448;2023-11-21T16:00:17;4.80;97.30
1075;DHT22;526;51.392;12.448;2023-11-21T16:02:46;4.80;97.30
1075;DHT22;526;51.392;12.448;2023-11-21T16:05:11;4.80;97.30
1075;DHT22;526;51.392;12.448;2023-11-21T16:07:40;4.80;97.30
1075;DHT22;526;51.392;12.448;2023-11-21T16:10:08;4.80;97.30
1075;DHT22;526;51.392;12.448;2023-11-21T16:12:36;4.80;97.30
1075;DHT22;526;51.392;12.448;2023-11-21T16:15:02;4.80;97.30
1075;DHT22;526;51.392;12.448;2023-11-21T16:17:35;4.80;97.30
1075;DHT22;526;51.392;12.448;2023-11-21T16:20:02;4.80;97.30
1075;DHT22;526;51.392;12.448;2023-11-21T16:22:31;4.80;97.30
1075;DHT22;526;51.392;12.448;2023-11-21T16:24:59;4.80;97.30
1075;DHT22;526;51.392;12.448;2023-11-21T16:27:30;4.80;97.30
1075;DHT22;526;51.392;12.448;2023-11-21T16:29:56;4.70;97.30
1075;DHT22;526;51.392;12.448;2023-11-21T16:32:23;4.70;97.30
1075;DHT22;526;51.392;12.448;2023-11-21T16:34:48;4.70;97.30
1075;DHT22;526;51.392;12.448;2023-11-21T16:37:14;4.70;97.30
1075;DHT22;526;51.392;12.448;2023-11-21T16:39:40;4.70;97.30
1075;DHT22;526;51.392;12.448;2023-11-21T16:42:07;4.70;97.30
1075;DHT22;526;51.392;12.448;2023-11-21T16:44:32;4.70;97.30
1075;DHT22;526;51.392;12.448;2023-11-21T16:46:58;4.70;97.30
1075;DHT22;526;51.392;12.448;2023-11-21T16:49:30;4.60;97.30
1075;DHT22;526;51.392;12.448;2023-11-21T16:51:57;4.70;97.30
1075;DHT22;526;51.392;12.448;2023-11-21T16:54:23;4.60;97.30
1075;DHT22;526;51.392;12.448;2023-11-21T16:56:49;4.60;97.30
1075;DHT22;526;51.392;12.448;2023-11-21T16:59:15;4.60;97.30
1075;DHT22;526;51.392;12.448;2023-11-21T17:01:41;4.60;97.30
1075;DHT22;526;51.392;12.448;2023-11-21T17:04:07;4.60;97.30
1075;DHT22;526;51.392;12.448;2023-11-21T17:06:34;4.60;97.30
1075;DHT22;526;51.392;12.448;2023-11-21T17:09:00;4.60;97.30
1075;DHT22;526;51.392;12.448;2023-11-21T17:11:29;4.60;97.30
1075;DHT22;526;51.392;12.448;2023-11-21T17:13:55;4.60;97.30
1075;DHT22;526;51.392;12.448;2023-11-21T17:16:21;4.50;97.30
1075;DHT22;526;51.392;12.448;2023-11-21T17:18:47;4.60;97.30
1075;DHT22;526;51.392;12.448;2023-11-21T17:21:12;4.60;97.30
1075;DHT22;526;51.392;12.448;2023-11-21T17:23:38;4.60;97.30
1075;DHT22;526;51.392;12.448;2023-11-21T17:26:03;4.60;97.30
1075;DHT22;526;51.392;12.448;2023-11-21T17:28:30;4.60;97.30
1075;DHT22;526;51.392;12.448;2023-11-21T17:30:55;4.60;97.30
1075;DHT22;526;51.392;12.448;2023-11-21T17:33:21;4.60;97.30
1075;DHT22;526;51.392;12.448;2023-11-21T17:35:46;4.60;97.30
1075;DHT22;526;51.392;12.448;2023-11-21T17:38:12;4.60;97.30
1075;DHT22;526;51.392;12.448;2023-11-21T17:40:38;4.60;97.30
1075;DHT22;526;51.392;12.448;2023-11-21T17:43:04;4.50;97.30
1075;DHT22;526;51.392;12.448;2023-11-21T17:45:30;4.50;97.30
1075;DHT22;526;51.392;12.448;2023-11-21T17:47:56;4.50;97.30
1075;DHT22;526;51.392;12.448;2023-11-21T17:50:21;4.50;97.30
1075;DHT22;526;51.392;12.448;2023-11-21T17:52:47;4.50;97.30
1075;DHT22;526;51.392;12.448;2023-11-21T17:55:13;4.50;97.30
1075;DHT22;526;51.392;12.448;2023-11-21T17:57:39;4.40;97.30
1075;DHT22;526;51.392;12.448;2023-11-21T18:00:07;4.40;97.30
1075;DHT22;526;51.392;12.448;2023-11-21T18:02:37;4.40;97.30
1075;DHT22;526;51.392;12.448;2023-11-21T18:05:03;4.40;97.30
1075;DHT22;526;51.392;12.448;2023-11-21T18:07:31;4.40;97.30
1075;DHT22;526;51.392;12.448;2023-11-21T18:09:56;4.40;97.30
1075;DHT22;526;51.392;12.448;2023-11-21T18:12:22;4.40;97.30
1075;DHT22;526;51.392;12.448;2023-11-21T18:14:47;4.40;97.30
1075;DHT22;526;51.392;12.448;2023-11-21T18:17:19;4.40;97.30
1075;DHT22;526;51.392;12.448;2023-11-21T18:19:45;4.40;97.30
1075;DHT22;526;51.392;12.448;2023-11-21T18:22:11;4.40;97.30
1075;DHT22;526;51.392;12.448;2023-11-21T18:24:36;4.30;97.30
1075;DHT22;526;51.392;12.448;2023-11-21T18:27:02;4.30;97.30
1075;DHT22;526;51.392;12.448;2023-11-21T18:29:30;4.30;97.30
1075;DHT22;526;51.392;12.448;2023-11-21T18:31:55;4.20;97.30
1075;DHT22;526;51.392;12.448;2023-11-21T18:34:21;4.20;97.30
1075;DHT22;526;51.392;12.448;2023-11-21T18:36:46;4.20;97.30
1075;DHT22;526;51.392;12.448;2023-11-21T18:39:12;4.10;97.30
1075;DHT22;526;51.392;12.448;2023-11-21T18:41:42;4.20;97.30
1075;DHT22;526;51.392;12.448;2023-11-21T18:44:08;4.20;97.30
1075;DHT22;526;51.392;12.448;2023-11-21T18:46:37;4.10;97.30
1075;DHT22;526;51.392;12.448;2023-11-21T18:49:03;4.10;97.30
1075;DHT22;526;51.392;12.448;2023-11-21T18:51:29;4.10;97.30
1075;DHT22;526;51.392;12.448;2023-11-21T18:53:55;4.10;97.30
1075;DHT22;526;51.392;12.448;2023-11-21T18:56:21;4.10;97.30
1075;DHT22;526;51.392;12.448;2023-11-21T18:58:47;4.10;97.30
1075;DHT22;526;51.392;12.448;2023-11-21T19:01:12;4.10;97.30
1075;DHT22;526;51.392;12.448;2023-11-21T19:03:41;4.10;97.30
1075;DHT22;526;51.392;12.448;2023-11-21T19:06:08;4.10;97.30
1075;DHT22;526;51.392;12.448;2023-11-21T19:08:34;4.00;97.30
1075;DHT22;526;51.392;12.448;2023-11-21T19:11:00;3.90;97.30
1075;DHT22;526;51.392;12.448;2023-11-21T19:13:25;3.80;97.30
1075;DHT22;526;51.392;12.448;2023-11-21T19:15:51;3.80;97.30
1075;DHT22;526;51.392;12.448;2023-11-21T19:18:16;3.70;97.30
1075;DHT22;526;51.392;12.448;2023-11-21T19:20:42;3.70;97.30
1075;DHT22;526;51.392;12.448;2023-11-21T19:23:08;3.70;97.30
1075;DHT22;526;51.392;12.448;2023-11-21T19:25:33;3.60;97.30
1075;DHT22;526;51.392;12.448;2023-11-21T19:27:59;3.60;97.30
1075;DHT22;526;51.392;12.448;2023-11-21T19:30:24;3.60;97.30
1075;DHT22;526;51.392;12.448;2023-11-21T19:32:50;3.60;97.30
1075;DHT22;526;51.392;12.448;2023-11-21T19:35:16;3.60;97.30
1075;DHT22;526;51.392;12.448;2023-11-21T19:37:41;3.50;97.30
1075;DHT22;526;51.392;12.448;2023-11-21T19:40:07;3.50;97.30
1075;DHT22;526;51.392;12.448;2023-11-21T19:42:33;3.50;97.30
1075;DHT22;526;51.392;12.448;2023-11-21T19:45:02;3.50;97.30
1075;DHT22;526;51.392;12.448;2023-11-21T19:47:28;3.50;97.30
1075;DHT22;526;51.392;12.448;2023-11-21T19:49:53;3.50;97.30
1075;DHT22;526;51.392;12.448;2023-11-21T19:52:20;3.50;97.30
1075;DHT22;526;51.392;12.448;2023-11-21T19:54:46;3.40;97.30
1075;DHT22;526;51.392;12.448;2023-11-21T19:57:12;3.40;97.30
1075;DHT22;526;51.392;12.448;2023-11-21T19:59:39;3.30;97.30
1075;DHT22;526;51.392;12.448;2023-11-21T20:02:08;3.30;97.30
1075;DHT22;526;51.392;12.448;2023-11-21T20:04:34;3.30;97.30
1075;DHT22;526;51.392;12.448;2023-11-21T20:07:00;3.20;97.30
1075;DHT22;526;51.392;12.448;2023-11-21T20:09:25;3.20;97.30
1075;DHT22;526;51.392;12.448;2023-11-21T20:11:51;3.20;97.30
1075;DHT22;526;51.392;12.448;2023-11-21T20:14:17;3.20;97.30
1075;DHT22;526;51.392;12.448;2023-11-21T20:16:43;3.20;97.30
1075;DHT22;526;51.392;12.448;2023-11-21T20:19:10;3.10;97.30
1075;DHT22;526;51.392;12.448;2023-11-21T20:21:35;3.20;97.30
1075;DHT22;526;51.392;12.448;2023-11-21T20:24:01;3.10;97.30
1075;DHT22;526;51.392;12.448;2023-11-21T20:26:26;3.10;97.30
1075;DHT22;526;51.392;12.448;2023-11-21T20:28:52;3.00;97.30
1075;DHT22;526;51.392;12.448;2023-11-21T20:31:19;3.00;97.30
1075;DHT22;526;51.392;12.448;2023-11-21T20:33:44;3.00;97.30
1075;DHT22;526;51.392;12.448;2023-11-21T20:36:10;2.90;97.30
1075;DHT22;526;51.392;12.448;2023-11-21T20:38:35;2.90;97.30
1075;DHT22;526;51.392;12.448;2023-11-21T20:41:01;2.90;97.30
1075;DHT22;526;51.392;12.448;2023-11-21T20:43:27;2.80;97.30
1075;DHT22;526;51.392;12.448;2023-11-21T20:45:52;2.80;97.30
1075;DHT22;526;51.392;12.448;2023-11-21T20:48:18;2.80;97.30
1075;DHT22;526;51.392;12.448;2023-11-21T20:50:45;2.70;97.30
1075;DHT22;526;51.392;12.448;2023-11-21T20:53:11;2.70;97.30
1075;DHT22;526;51.392;12.448;2023-11-21T20:55:40;2.70;97.30
1075;DHT22;526;51.392;12.448;2023-11-21T20:58:07;2.70;97.30
1075;DHT22;526;51.392;12.448;2023-11-21T21:00:34;2.70;97.30
1075;DHT22;526;51.392;12.448;2023-11-21T21:03:00;2.70;97.30
1075;DHT22;526;51.392;12.448;2023-11-21T21:05:26;2.70;97.30
1075;DHT22;526;51.392;12.448;2023-11-21T21:07:52;2.70;97.30
1075;DHT22;526;51.392;12.448;2023-11-21T21:10:23;2.70;97.30
1075;DHT22;526;51.392;12.448;2023-11-21T21:12:51;2.70;97.30
1075;DHT22;526;51.392;12.448;2023-11-21T21:15:17;2.70;97.30
1075;DHT22;526;51.392;12.448;2023-11-21T21:17:42;2.70;97.30
1075;DHT22;526;51.392;12.448;2023-11-21T21:20:08;2.70;97.30
1075;DHT22;526;51.392;12.448;2023-11-21T21:22:40;2.70;97.30
1075;DHT22;526;51.392;12.448;2023-11-21T21:25:08;2.60;97.30
1075;DHT22;526;51.392;12.448;2023-11-21T21:27:34;2.60;97.30
1075;DHT22;526;51.392;12.448;2023-11-21T21:30:02;2.50;97.30
1075;DHT22;526;51.392;12.448;2023-11-21T21:32:29;2.50;97.30
1075;DHT22;526;51.392;12.448;2023-11-21T21:34:54;2.50;97.30